Time;durP1;ratioP1;P1;durP2;ratioP2;P2;SDS_P1;SDS_P2;PMS_P1;PMS_P2;Temp;Humidity;BMP_temperature;BMP_pressure;BME280_temperature;BME280_humidity;BME280_pressure;Samples;Min_cycle;Max_cycle;Signal;HPM_P1;HPM_P2
2022/04/26 03:37:46;;;;;;;;;;;;;;;4.37;96.04;100881.16;5998910;28;20422;-69
2022/04/26 03:40:42;;;;;;;26.40;11.10;;;;;;;4.31;95.89;100886.81;6001834;28;19918;-69
2022/04/26 03:43:37;;;;;;;28.63;11.87;;;;;;;4.42;96.35;100884.31;6002875;28;20042;-68
2022/04/26 03:46:33;;;;;;;32.47;12.63;;;;;;;4.73;95.56;100894.41;6001928;28;20030;-68
2022/04/26 03:49:28;;;;;;;34.60;12.87;;;;;;;5.02;95.40;100887.16;6002785;28;20050;-68
2022/04/26 03:52:23;;;;;;;29.50;13.70;;;;;;;4.93;95.23;100881.69;6001347;28;20030;-68
2022/04/26 03:55:20;;;;;;;32.53;12.90;;;;;;;4.99;94.73;100889.16;6015067;28;20093;-68
2022/04/26 03:58:16;;;;;;;28.40;12.48;;;;;;;4.95;94.38;100885.88;6008149;28;20660;-68
2022/04/26 04:01:11;;;;;;;29.60;12.68;;;;;;;4.93;94.08;100890.41;6002056;28;20078;-67
2022/04/26 04:04:07;;;;;;;32.57;13.20;;;;;;;5.13;94.04;100894.28;6002728;28;20043;-68
2022/04/26 04:07:03;;;;;;;29.77;13.02;;;;;;;5.37;93.86;100896.03;6015659;28;20386;-68
2022/04/26 04:09:58;;;;;;;35.30;13.57;;;;;;;5.31;93.10;100900.88;6005070;28;20034;-68
2022/04/26 04:12:54;;;;;;;31.07;13.10;;;;;;;5.07;93.49;100899.97;6015516;28;20041;-67
2022/04/26 04:15:49;;;;;;;26.50;12.73;;;;;;;4.64;92.92;100897.69;6002558;28;20030;-69
2022/04/26 04:21:58;;;;;;;25.02;11.73;;;;;;;4.13;93.86;100903.78;6001462;28;20405;-68
2022/04/26 04:24:54;;;;;;;25.17;11.43;;;;;;;4.69;95.76;100905.22;6002195;28;20035;-68
2022/04/26 04:27:49;;;;;;;29.45;11.55;;;;;;;4.76;94.89;100902.06;6001708;28;20118;-68
2022/04/26 04:30:44;;;;;;;24.67;13.33;;;;;;;4.43;93.62;100901.72;6000938;28;20375;-69
2022/04/26 04:33:39;;;;;;;26.47;11.23;;;;;;;4.53;94.89;100908.06;6002540;28;20039;-69
2022/04/26 04:36:35;;;;;;;32.07;12.37;;;;;;;5.47;95.27;100893.59;6001820;28;20122;-68
2022/04/26 04:39:30;;;;;;;28.93;13.30;;;;;;;5.60;94.13;100901.47;6001319;28;20374;-67
2022/04/26 04:42:25;;;;;;;28.33;12.33;;;;;;;5.64;93.56;100914.28;6001647;28;20105;-68
2022/04/26 04:45:21;;;;;;;28.37;12.97;;;;;;;6.04;94.05;100909.63;6001818;28;20066;-67
2022/04/26 04:48:16;;;;;;;32.60;13.53;;;;;;;5.71;92.58;100914.66;6005752;28;20398;-68
2022/04/26 04:51:11;;;;;;;29.37;12.40;;;;;;;5.92;92.62;100906.09;6006035;28;20316;-68
2022/04/26 04:54:07;;;;;;;29.60;12.07;;;;;;;5.94;92.38;100909.47;6007007;28;20274;-68
2022/04/26 04:57:05;;;;;;;30.23;13.30;;;;;;;5.74;91.69;100910.03;6016083;28;20129;-68
2022/04/26 05:00:01;;;;;;;33.88;13.65;;;;;;;5.57;92.62;100913.03;6006314;28;20494;-67
2022/04/26 05:02:56;;;;;;;31.60;14.13;;;;;;;5.64;92.86;100919.53;6006556;28;20043;-68
2022/04/26 05:05:52;;;;;;;29.48;13.00;;;;;;;5.85;93.79;100919.81;6016196;28;20031;-68
2022/04/26 05:08:47;;;;;;;31.97;14.77;;;;;;;5.98;93.62;100923.22;6009972;28;20458;-68
2022/04/26 05:11:42;;;;;;;32.47;13.60;;;;;;;6.01;93.96;100932.72;6005661;28;20026;-68
2022/04/26 05:14:38;;;;;;;40.22;14.88;;;;;;;6.17;93.18;100933.28;6006313;28;20498;-67
2022/04/26 05:17:33;;;;;;;33.77;13.70;;;;;;;6.15;92.38;100929.91;6005975;28;20034;-68
2022/04/26 05:20:28;;;;;;;40.93;16.63;;;;;;;6.46;92.44;100916.16;6004924;28;20041;-68
2022/04/26 05:26:37;;;;;;;;;;;;;;;6.43;91.67;100940.09;6001936;28;20697;-68
2022/04/26 05:29:32;;;;;;;32.33;13.83;;;;;;;7.31;91.93;100922.75;6005921;28;19910;-67
2022/04/26 05:32:28;;;;;;;33.17;14.23;;;;;;;7.46;88.69;100932.94;6004840;28;20058;-69
2022/04/26 05:35:24;;;;;;;31.48;14.38;;;;;;;7.80;88.71;100928.44;6005387;28;20273;-68
2022/04/26 05:38:20;;;;;;;32.13;14.32;;;;;;;8.46;85.27;100921.31;6005325;28;20041;-68
2022/04/26 05:41:15;;;;;;;30.25;14.93;;;;;;;8.61;83.78;100922.69;5992886;28;20526;-68
2022/04/26 05:44:10;;;;;;;32.67;13.60;;;;;;;9.18;82.62;100915.09;6000279;28;20045;-68
2022/04/26 05:47:07;;;;;;;26.97;13.57;;;;;;;10.06;81.13;100905.44;6006267;28;20054;-68
2022/04/26 05:50:02;;;;;;;25.58;12.18;;;;;;;10.43;76.87;100908.31;6003725;28;20074;-69
2022/04/26 05:52:57;;;;;;;30.73;13.63;;;;;;;9.30;78.75;100911.38;6006246;28;20027;-68
2022/04/26 05:55:52;;;;;;;27.77;12.73;;;;;;;9.25;80.27;100915.41;6005336;28;20277;-68
2022/04/26 05:58:48;;;;;;;27.80;12.63;;;;;;;9.32;79.75;100912.06;6004823;28;20050;-68
2022/04/26 06:01:43;;;;;;;29.60;13.73;;;;;;;8.92;81.66;100927.06;6003515;28;20034;-68
2022/04/26 06:04:39;;;;;;;30.57;13.83;;;;;;;9.73;81.71;100913.75;6003221;28;20089;-68
2022/04/26 06:07:34;;;;;;;26.90;12.65;;;;;;;10.47;78.75;100924.75;6004094;28;20062;-68
2022/04/26 06:10:30;;;;;;;28.30;12.87;;;;;;;11.36;73.88;100918.94;6004082;28;20039;-68
2022/04/26 06:13:25;;;;;;;29.33;13.90;;;;;;;11.07;74.67;100932.34;6005348;28;20057;-68
2022/04/26 06:16:21;;;;;;;26.20;13.27;;;;;;;11.51;73.21;100924.63;6001995;28;20478;-68
2022/04/26 06:19:16;;;;;;;27.38;12.52;;;;;;;12.48;69.91;100907.91;6004028;28;20490;-68
2022/04/26 06:22:11;;;;;;;27.17;13.20;;;;;;;12.64;67.10;100913.38;6004132;28;20544;-68
2022/04/26 06:25:07;;;;;;;27.97;14.27;;;;;;;12.37;67.04;100906.34;6003686;28;20039;-68
2022/04/26 06:28:04;;;;;;;39.00;16.60;;;;;;;10.35;74.71;100925.88;5999138;28;20042;-68
2022/04/26 06:31:00;;;;;;;41.85;18.27;;;;;;;10.05;77.98;100929.44;6000908;28;20027;-67
2022/04/26 06:33:55;;;;;;;43.22;17.92;;;;;;;10.75;75.57;100919.44;6003482;28;20038;-67
2022/04/26 06:36:51;;;;;;;37.63;17.53;;;;;;;9.97;77.22;100919.50;6003663;28;20042;-67
2022/04/26 06:39:46;;;;;;;40.20;18.87;;;;;;;9.79;79.09;100917.66;6003162;28;20042;-68
2022/04/26 06:42:41;;;;;;;34.90;17.10;;;;;;;9.87;80.20;100925.75;6009247;28;20045;-67
2022/04/26 06:45:37;;;;;;;40.47;16.27;;;;;;;10.74;76.46;100925.69;6002957;28;20042;-67
2022/04/26 06:48:32;;;;;;;34.78;15.23;;;;;;;11.25;75.08;100919.16;6007031;28;20042;-68
2022/04/26 06:51:30;;;;;;;33.97;15.50;;;;;;;11.03;74.50;100927.47;5995982;28;20066;-67
2022/04/26 06:54:25;;;;;;;34.22;16.50;;;;;;;11.56;73.29;100936.50;6006541;28;20282;-67
2022/04/26 06:57:21;;;;;;;36.00;16.03;;;;;;;11.85;73.15;100929.22;6003166;28;20038;-68
2022/04/26 07:00:16;;;;;;;36.93;17.07;;;;;;;11.57;71.75;100926.72;6002792;28;20042;-67
2022/04/26 07:03:12;;;;;;;35.85;15.52;;;;;;;11.90;72.74;100934.94;5995718;28;20045;-67
2022/04/26 07:06:07;;;;;;;35.75;15.30;;;;;;;11.91;70.62;100933.13;6009186;28;20035;-68
2022/04/26 07:09:03;;;;;;;34.20;14.90;;;;;;;12.94;68.33;100936.06;6001729;28;20035;-68
2022/04/26 07:11:58;;;;;;;35.42;15.15;;;;;;;12.95;67.12;100930.59;6005061;28;20031;-68
2022/04/26 07:14:54;;;;;;;34.07;15.17;;;;;;;13.31;66.46;100933.16;6002724;28;20081;-68
2022/04/26 07:17:49;;;;;;;33.93;15.43;;;;;;;13.16;68.41;100934.72;6008396;28;20038;-68
2022/04/26 07:20:44;;;;;;;33.23;15.03;;;;;;;13.51;66.56;100939.91;6002470;28;20579;-69
2022/04/26 07:23:40;;;;;;;28.17;14.10;;;;;;;14.11;64.95;100941.47;5977773;28;20043;-69
2022/04/26 07:26:35;;;;;;;28.43;13.63;;;;;;;13.78;65.18;100946.88;6002476;28;20117;-68
2022/04/26 07:29:30;;;;;;;26.17;12.83;;;;;;;14.43;62.93;100943.38;6004338;28;20040;-68
2022/04/26 07:35:39;;;;;;;28.60;13.18;;;;;;;14.70;62.38;100944.94;6006809;28;20031;-68
2022/04/26 07:38:35;;;;;;;26.47;11.37;;;;;;;15.23;60.09;100947.03;6006369;28;20034;-69
2022/04/26 07:41:31;;;;;;;25.42;12.93;;;;;;;15.20;60.73;100950.88;6002073;28;20049;-69
2022/04/26 07:44:26;;;;;;;27.37;12.63;;;;;;;15.00;59.73;100954.91;6001715;28;20054;-68
2022/04/26 07:47:24;;;;;;;27.90;14.00;;;;;;;14.90;62.32;100947.09;6001469;28;20053;-69
2022/04/26 07:50:19;;;;;;;26.10;12.52;;;;;;;14.65;62.49;100952.56;6001048;28;20273;-69
2022/04/26 07:53:15;;;;;;;27.50;13.43;;;;;;;14.76;61.87;100949.56;5981613;28;20092;-69
2022/04/26 07:56:10;;;;;;;23.45;12.10;;;;;;;14.68;60.51;100949.56;6000974;28;20285;-69
2022/04/26 07:59:05;;;;;;;24.20;12.77;;;;;;;14.89;61.32;100948.06;6004486;28;20239;-69
2022/04/26 08:02:01;;;;;;;26.75;13.45;;;;;;;14.89;60.95;100947.25;6003479;28;20570;-69
2022/04/26 08:05:01;;;;;;;23.53;12.13;;;;;;;15.21;61.18;100957.91;6007142;28;20387;-69
2022/04/26 08:07:56;;;;;;;24.88;12.60;;;;;;;15.08;61.19;100954.91;6007680;28;20031;-68
2022/04/26 08:10:51;;;;;;;22.67;11.25;;;;;;;14.81;62.59;100963.28;6001111;28;20038;-69
2022/04/26 08:13:47;;;;;;;27.52;12.88;;;;;;;14.97;63.46;100957.09;6009730;28;20038;-69
2022/04/26 08:16:42;;;;;;;25.77;12.10;;;;;;;15.25;62.53;100963.72;6002085;28;20061;-69
2022/04/26 08:19:38;;;;;;;24.02;12.18;;;;;;;15.41;60.85;100966.34;6001775;28;20039;-69
2022/04/26 08:22:33;;;;;;;19.63;11.60;;;;;;;15.16;61.23;100973.59;6000406;28;20031;-69
2022/04/26 08:28:43;;;;;;;22.10;11.98;;;;;;;15.66;59.62;100969.81;5998954;28;20042;-69
2022/04/26 08:31:39;;;;;;;20.50;10.80;;;;;;;15.62;59.86;100965.84;5999414;28;20720;-69
2022/04/26 08:34:34;;;;;;;17.50;9.65;;;;;;;15.57;59.56;100970.88;6000672;28;20125;-69
2022/04/26 08:37:29;;;;;;;20.87;10.37;;;;;;;15.04;62.64;100972.28;6001828;28;20038;-68
2022/04/26 08:40:26;;;;;;;20.67;10.57;;;;;;;15.29;60.50;100979.25;6000677;28;20329;-69
2022/04/26 08:43:21;;;;;;;19.70;9.02;;;;;;;15.77;58.83;100977.47;6001891;28;20064;-69
2022/04/26 08:46:17;;;;;;;17.08;8.60;;;;;;;16.04;55.68;100969.81;6000596;28;20081;-69
2022/04/26 08:52:28;;;;;;;20.77;9.23;;;;;;;16.38;57.15;100982.03;5981415;28;20038;-69
2022/04/26 08:55:23;;;;;;;17.77;9.63;;;;;;;15.48;57.77;100988.75;6005273;28;20034;-68
2022/04/26 08:58:19;;;;;;;19.20;8.97;;;;;;;15.11;59.01;100991.94;6000372;28;20482;-69
2022/04/26 09:01:19;;;;;;;19.90;9.68;;;;;;;15.47;59.63;100993.28;6000716;28;20493;-69
2022/04/26 09:04:16;;;;;;;;;;;;;;;15.88;58.54;100995.81;6000946;28;20074;-69
2022/04/26 09:07:12;;;;;;;18.05;8.95;;;;;;;16.09;56.35;100982.66;6011994;28;20366;-69
2022/04/26 09:10:11;;;;;;;20.80;9.00;;;;;;;16.21;54.77;100991.97;5983324;28;20035;-69
2022/04/26 09:13:08;;;;;;;18.42;9.30;;;;;;;16.26;56.34;100989.59;6000562;28;20049;-69
2022/04/26 09:16:06;;;;;;;13.93;7.95;;;;;;;16.36;53.07;100994.75;6000699;28;20372;-69
2022/04/26 09:19:06;;;;;;;15.05;7.75;;;;;;;16.74;53.05;100982.31;5991571;28;20161;-69
2022/04/26 09:22:01;;;;;;;13.73;7.35;;;;;;;16.83;53.36;100997.28;6001718;28;20038;-69
2022/04/26 09:25:05;;;;;;;11.85;6.60;;;;;;;16.96;51.21;100997.53;6001177;28;20067;-69
2022/04/26 09:28:01;;;;;;;14.57;6.65;;;;;;;17.09;50.80;100992.41;5999935;28;20030;-70
2022/04/26 09:30:57;;;;;;;9.38;5.55;;;;;;;17.45;47.04;100992.56;6000000;28;20422;-69
2022/04/26 09:34:04;;;;;;;8.32;4.45;;;;;;;18.09;46.12;100990.97;6003390;28;20045;-69
2022/04/26 09:37:04;;;;;;;11.02;6.55;;;;;;;17.55;45.71;100987.78;6004789;28;20038;-69
2022/04/26 09:40:02;;;;;;;9.55;5.65;;;;;;;18.06;48.45;100981.44;6004386;28;20043;-68
2022/04/26 09:42:57;;;;;;;12.48;5.93;;;;;;;17.52;48.13;100988.94;6002489;28;20517;-69
2022/04/26 09:45:55;;;;;;;12.67;5.33;;;;;;;16.95;48.29;100994.03;6005510;28;20039;-69
2022/04/26 09:48:53;;;;;;;14.98;7.55;;;;;;;16.77;49.49;101003.38;6004511;28;20438;-69
2022/04/26 09:51:55;;;;;;;11.70;6.65;;;;;;;16.45;51.14;101010.56;5985464;28;20035;-69
2022/04/26 09:54:51;;;;;;;13.98;7.35;;;;;;;16.57;51.54;101003.00;6005213;28;20390;-69
2022/04/26 09:57:46;;;;;;;11.40;6.33;;;;;;;16.80;49.81;101003.84;6004461;28;20042;-69
2022/04/26 10:00:43;;;;;;;12.02;6.53;;;;;;;17.08;49.41;101013.00;5985526;28;20035;-69
2022/04/26 10:03:40;;;;;;;11.18;6.30;;;;;;;16.93;50.02;101008.63;6001075;28;20041;-69
2022/04/26 10:06:37;;;;;;;10.55;5.85;;;;;;;16.64;49.31;101009.31;6000294;28;20050;-69
2022/04/26 10:09:33;;;;;;;11.38;6.13;;;;;;;15.89;50.37;101008.19;6004685;28;20041;-69
2022/04/26 10:12:30;;;;;;;8.50;4.85;;;;;;;15.87;49.55;101015.56;6011288;28;20039;-69
2022/04/26 10:15:25;;;;;;;8.32;4.85;;;;;;;15.80;49.60;101009.22;5987163;28;20038;-69
2022/04/26 10:18:32;;;;;;;8.75;4.60;;;;;;;15.57;51.63;101019.00;6003323;28;20438;-69
2022/04/26 10:21:27;;;;;;;;;;;;;;;15.39;51.90;101019.16;6008057;28;20049;-69
2022/04/26 10:24:23;;;;;;;11.00;6.13;;;;;;;15.17;53.56;101012.66;6007282;28;19910;-69
2022/04/26 10:27:22;;;;;;;10.80;6.00;;;;;;;15.32;53.71;101015.50;6013792;28;20058;-69
2022/04/26 10:30:50;;;;;;;12.73;7.10;;;;;;;15.17;52.84;101012.66;6001579;28;20038;-69
2022/04/26 10:33:46;;;;;;;11.45;5.22;;;;;;;15.33;51.76;101014.47;6005008;28;20034;-69
2022/04/26 10:36:43;;;;;;;14.43;5.30;;;;;;;15.37;52.03;101003.28;6013567;28;20074;-69
2022/04/26 10:39:50;;;;;;;8.60;4.60;;;;;;;15.28;51.51;101011.47;6004108;28;20161;-69
2022/04/26 10:43:05;;;;;;;10.80;4.78;;;;;;;15.60;50.87;101019.47;6003487;28;20121;-69
2022/04/26 10:46:15;;;;;;;13.13;6.03;;;;;;;15.43;50.43;101023.16;5999665;28;20041;-69
2022/04/26 10:49:25;;;;;;;12.82;5.45;;;;;;;15.73;50.37;101026.97;6004132;28;20508;-69
2022/04/26 10:52:24;;;;;;;12.73;6.80;;;;;;;15.61;51.64;101031.00;6003481;28;20398;-69
2022/04/26 10:55:24;;;;;;;12.00;6.30;;;;;;;15.21;52.56;101024.69;6003818;28;20077;-69
2022/04/26 10:58:20;;;;;;;10.40;6.20;;;;;;;15.03;53.50;101020.53;6003837;28;20049;-69
2022/04/26 11:01:15;;;;;;;13.33;5.67;;;;;;;15.26;53.75;101032.19;6003225;28;20463;-69
2022/04/26 11:04:15;;;;;;;11.65;6.35;;;;;;;15.12;53.06;101025.69;6006049;28;20038;-69
2022/04/26 11:07:17;;;;;;;12.82;6.20;;;;;;;15.65;53.12;101032.34;6014390;28;20046;-69
2022/04/26 11:10:15;;;;;;;11.82;5.80;;;;;;;15.64;53.66;101036.84;6003117;28;20035;-69
2022/04/26 11:13:18;;;;;;;8.73;5.25;;;;;;;15.75;52.46;101032.97;6010250;28;20034;-69
2022/04/26 11:16:13;;;;;;;9.80;5.43;;;;;;;15.52;53.06;101034.72;6003303;28;20046;-69
2022/04/26 11:19:09;;;;;;;11.45;5.32;;;;;;;15.66;53.29;101037.50;6003427;28;20046;-69
2022/04/26 11:22:06;;;;;;;11.10;6.15;;;;;;;15.82;52.06;101048.16;6002891;28;20039;-69
2022/04/26 11:28:23;;;;;;;9.13;5.28;;;;;;;16.01;50.33;101038.88;6000211;28;20039;-69
2022/04/26 11:31:19;;;;;;;9.07;5.15;;;;;;;16.02;52.60;101032.53;6002461;28;20454;-69
2022/04/26 11:34:14;;;;;;;7.57;4.90;;;;;;;16.63;50.32;101039.81;6003352;28;20048;-69
2022/04/26 11:37:11;;;;;;;13.43;5.20;;;;;;;16.26;49.11;101039.63;6002955;28;20058;-68
2022/04/26 11:40:07;;;;;;;12.88;5.40;;;;;;;16.42;49.96;101047.56;6002397;28;20038;-68
2022/04/26 11:43:33;;;;;;;11.13;6.10;;;;;;;15.34;52.92;101046.38;6002826;28;20098;-68
2022/04/26 11:46:30;;;;;;;10.23;5.07;;;;;;;15.37;52.69;101035.38;5980241;28;20049;-68
2022/04/26 11:49:41;;;;;;;11.57;6.15;;;;;;;15.40;52.80;101040.38;5985614;28;20054;-69
2022/04/26 11:52:36;;;;;;;10.60;4.93;;;;;;;15.73;50.40;101048.34;6000715;28;20043;-69
2022/04/26 11:55:40;;;;;;;9.17;4.50;;;;;;;16.45;51.09;101047.22;6001474;28;20066;-68
2022/04/26 11:58:37;;;;;;;9.35;4.90;;;;;;;17.11;49.11;101041.28;6001463;28;20282;-68
2022/04/26 12:01:36;;;;;;;12.18;5.22;;;;;;;16.87;49.42;101044.16;5999590;28;20054;-70
2022/04/26 12:04:32;;;;;;;10.00;4.70;;;;;;;17.02;50.22;101050.38;6001931;28;20035;-69
2022/04/26 12:07:27;;;;;;;10.77;4.97;;;;;;;16.92;48.46;101057.84;5995463;28;20066;-68
2022/04/26 12:10:33;;;;;;;10.30;5.30;;;;;;;17.04;48.41;101059.91;6001836;28;20038;-68
2022/04/26 12:13:32;;;;;;;8.95;4.53;;;;;;;16.72;48.02;101059.31;6017109;28;20493;-68
2022/04/26 12:16:29;;;;;;;11.00;5.90;;;;;;;16.85;48.17;101060.38;6002170;28;21297;-69
2022/04/26 12:19:37;;;;;;;7.78;4.35;;;;;;;17.26;46.76;101063.59;6001402;28;20038;-69
2022/04/26 12:22:36;;;;;;;9.65;5.10;;;;;;;17.35;46.86;101061.66;6002112;28;20598;-69
2022/04/26 12:25:35;;;;;;;9.25;4.50;;;;;;;17.49;46.31;101064.41;6001675;28;20049;-69
2022/04/26 12:28:31;;;;;;;9.35;4.15;;;;;;;17.50;47.47;101059.88;6007356;28;20043;-69
2022/04/26 12:31:30;;;;;;;8.15;3.83;;;;;;;17.47;47.34;101070.97;6000644;28;20058;-69
2022/04/26 12:34:29;;;;;;;6.82;4.18;;;;;;;17.31;46.48;101055.03;6002319;28;20035;-69
2022/04/26 12:37:26;;;;;;;7.53;3.58;;;;;;;17.33;46.61;101058.34;6002319;28;20494;-70
2022/04/26 12:40:22;;;;;;;7.40;3.60;;;;;;;17.24;47.85;101053.06;6001130;28;20391;-68
2022/04/26 12:43:30;;;;;;;5.77;2.90;;;;;;;17.31;47.41;101061.22;6002178;28;20074;-69
2022/04/26 12:46:26;;;;;;;6.72;3.80;;;;;;;16.87;47.24;101057.53;6001755;28;20090;-68
2022/04/26 12:52:35;;;;;;;8.07;4.70;;;;;;;17.12;46.52;101053.69;6000817;28;20809;-69
2022/04/26 12:55:34;;;;;;;7.83;3.93;;;;;;;17.06;46.66;101062.44;6002187;28;20031;-69
2022/04/26 12:58:37;;;;;;;6.95;3.58;;;;;;;17.11;44.96;101065.41;6001868;28;20122;-69
2022/04/26 13:01:32;;;;;;;10.02;3.80;;;;;;;17.10;45.04;101058.34;6001184;28;20038;-69
2022/04/26 13:04:27;;;;;;;8.00;3.97;;;;;;;17.04;44.00;101056.41;6002350;28;20035;-69
2022/04/26 13:07:23;;;;;;;8.57;4.17;;;;;;;17.28;43.41;101054.34;6010060;28;20109;-69
2022/04/26 13:10:19;;;;;;;8.47;4.80;;;;;;;17.68;41.48;101053.16;6004924;28;20054;-69
2022/04/26 13:13:15;;;;;;;9.40;4.10;;;;;;;17.31;43.54;101060.38;6010123;28;20090;-69
2022/04/26 13:16:10;;;;;;;7.03;4.20;;;;;;;17.24;43.44;101057.56;6006368;28;20453;-69
2022/04/26 13:19:05;;;;;;;6.10;3.17;;;;;;;17.49;43.66;101059.03;6006485;28;20038;-69
2022/04/26 13:22:01;;;;;;;6.78;3.05;;;;;;;17.71;43.78;101057.34;6005362;28;20027;-69
2022/04/26 13:24:56;;;;;;;4.17;2.57;;;;;;;17.29;46.92;101065.91;6006564;28;20065;-69
2022/04/26 13:27:51;;;;;;;5.17;2.70;;;;;;;17.05;46.60;101061.59;6006917;28;20031;-70
2022/04/26 13:30:47;;;;;;;5.78;3.10;;;;;;;16.43;48.27;101066.16;6005328;28;20039;-70
2022/04/26 13:33:45;;;;;;;8.20;2.97;;;;;;;16.47;49.68;101067.44;6005905;28;20045;-69
2022/04/26 13:36:40;;;;;;;7.10;3.20;;;;;;;16.62;48.65;101071.09;6006079;28;20282;-69
2022/04/26 13:39:36;;;;;;;8.30;3.58;;;;;;;16.23;50.10;101059.53;6005802;28;20500;-69
2022/04/26 13:42:32;;;;;;;8.38;3.33;;;;;;;16.03;50.53;101063.66;6004980;28;20061;-70
2022/04/26 13:45:27;;;;;;;8.23;3.40;;;;;;;16.05;51.07;101066.97;6005685;28;20111;-69
2022/04/26 13:48:22;;;;;;;6.83;3.70;;;;;;;15.93;50.62;101061.16;6005494;28;20047;-69
2022/04/26 13:51:17;;;;;;;7.33;3.80;;;;;;;15.92;50.45;101062.19;6004685;28;20027;-69
2022/04/26 13:54:13;;;;;;;6.80;3.73;;;;;;;15.99;48.62;101056.97;6005277;28;20038;-69
2022/04/26 13:57:09;;;;;;;8.27;3.70;;;;;;;16.03;49.76;101061.78;6005025;28;20046;-69
2022/04/26 14:00:05;;;;;;;7.97;4.45;;;;;;;15.79;49.33;101055.72;6004906;28;20542;-69
2022/04/26 14:03:00;;;;;;;6.30;3.58;;;;;;;16.41;48.91;101057.47;6004834;28;20038;-69
2022/04/26 14:05:56;;;;;;;5.70;3.80;;;;;;;16.63;47.60;101062.03;6005999;28;20470;-69
2022/04/26 14:08:52;;;;;;;4.68;3.13;;;;;;;16.69;44.73;101060.50;6004695;28;20278;-69
2022/04/26 14:11:48;;;;;;;7.13;2.88;;;;;;;16.71;45.75;101057.66;6009237;28;20030;-69
2022/04/26 14:24:28;;;;;;;6.57;3.45;;;;;;;16.03;46.33;101051.09;6004709;28;20043;-69
2022/04/26 14:27:24;;;;;;;8.05;3.60;;;;;;;15.92;44.63;101056.00;6004685;28;20027;-69
2022/04/26 14:30:19;;;;;;;11.18;4.38;;;;;;;15.96;45.94;101052.78;6003489;28;20385;-69
2022/04/26 14:33:15;;;;;;;7.30;3.40;;;;;;;16.08;46.18;101061.28;6000767;28;20030;-69
2022/04/26 14:36:11;;;;;;;4.57;2.85;;;;;;;16.21;45.81;101061.56;6004089;28;20491;-69
2022/04/26 14:39:06;;;;;;;7.20;3.17;;;;;;;16.05;45.52;101066.97;6003259;28;20101;-69
2022/04/26 14:42:03;;;;;;;5.20;3.13;;;;;;;15.96;45.52;101063.50;5986427;28;20039;-69
2022/04/26 14:44:58;;;;;;;8.23;3.53;;;;;;;15.45;46.11;101063.91;6004030;28;20035;-69
2022/04/26 14:47:53;;;;;;;7.90;3.00;;;;;;;15.69;45.00;101066.56;6004265;28;20042;-69
2022/04/26 14:50:49;;;;;;;9.43;3.70;;;;;;;15.33;46.43;101070.59;6002858;28;20034;-69
2022/04/26 14:53:44;;;;;;;5.70;2.90;;;;;;;15.66;46.87;101068.75;6003860;28;20062;-69
2022/04/26 14:56:39;;;;;;;5.60;2.80;;;;;;;15.90;46.82;101061.50;6003561;28;20043;-69
2022/04/26 14:59:39;;;;;;;6.80;3.20;;;;;;;16.17;45.64;101062.09;6003828;28;20030;-69
2022/04/26 15:02:40;;;;;;;5.28;3.22;;;;;;;16.23;45.09;101064.91;6002960;28;20149;-69
2022/04/26 15:05:35;;;;;;;4.72;3.13;;;;;;;15.83;45.94;101065.03;6006141;28;20030;-69
2022/04/26 15:11:44;;;;;;;5.68;3.30;;;;;;;15.79;46.76;101067.22;6005051;28;20038;-69
2022/04/26 15:17:54;;;;;;;8.00;3.50;;;;;;;16.06;45.64;101069.47;6002732;28;20390;-69
2022/04/26 15:20:53;;;;;;;7.32;3.50;;;;;;;16.01;46.01;101077.19;6002667;28;20047;-69
2022/04/26 15:23:48;;;;;;;7.13;3.10;;;;;;;16.21;46.55;101082.13;6002961;28;20043;-69
2022/04/26 15:26:44;;;;;;;6.70;2.97;;;;;;;16.24;46.54;101069.25;6002731;28;20062;-69
2022/04/26 15:29:40;;;;;;;4.88;3.63;;;;;;;16.17;45.67;101059.41;6003554;28;20390;-69
2022/04/26 15:32:35;;;;;;;6.10;3.22;;;;;;;16.04;45.47;101066.13;6000757;28;20035;-69
2022/04/26 15:35:31;;;;;;;5.90;3.10;;;;;;;15.92;45.36;101074.72;6001652;28;20027;-69
2022/04/26 15:38:27;;;;;;;6.38;3.30;;;;;;;16.00;46.82;101074.69;6002801;28;20085;-69
2022/04/26 15:41:24;;;;;;;7.35;3.88;;;;;;;16.07;47.25;101071.16;6005400;28;20389;-70
2022/04/26 15:44:19;;;;;;;7.28;3.72;;;;;;;16.11;46.62;101070.81;6001824;28;20070;-69
2022/04/26 15:47:15;;;;;;;8.27;4.20;;;;;;;15.92;46.84;101064.03;6008364;28;20034;-70
2022/04/26 15:50:10;;;;;;;9.25;3.88;;;;;;;16.05;47.16;101069.66;6001776;28;20509;-69
2022/04/26 15:53:06;;;;;;;5.53;3.42;;;;;;;15.71;47.43;101074.44;6002497;28;20034;-69
2022/04/26 15:56:02;;;;;;;8.10;3.80;;;;;;;15.88;47.29;101076.06;6001850;28;20035;-69
2022/04/26 15:58:57;;;;;;;6.38;3.65;;;;;;;15.81;46.91;101077.75;6005762;28;20034;-69
2022/04/26 16:01:52;;;;;;;7.73;3.70;;;;;;;15.91;46.59;101075.72;6001023;28;20035;-69
2022/04/26 16:04:48;;;;;;;6.57;3.70;;;;;;;15.72;47.27;101076.94;6003374;28;20039;-69
2022/04/26 16:07:43;;;;;;;5.87;2.97;;;;;;;16.01;47.93;101082.53;6010194;28;20510;-69
2022/04/26 16:20:28;;;;;;;8.07;3.65;;;;;;;15.92;46.57;101080.91;6002369;28;20118;-69
2022/04/26 16:20:31;;;;;;;7.40;3.15;;;;;;;16.06;47.31;101085.53;6002077;28;20026;-69
2022/04/26 16:23:26;;;;;;;6.32;3.60;;;;;;;16.20;46.39;101086.66;6002771;28;20041;-70
2022/04/26 16:26:22;;;;;;;7.40;3.40;;;;;;;16.06;46.44;101079.38;6002526;28;21631;-69
2022/04/26 16:29:18;;;;;;;11.40;3.70;;;;;;;16.23;46.52;101083.63;6003310;28;20023;-69
2022/04/26 16:32:13;;;;;;;6.70;3.55;;;;;;;16.29;46.07;101077.59;6000961;28;20508;-69
2022/04/26 16:35:10;;;;;;;6.50;3.40;;;;;;;16.65;44.29;101081.47;6002412;28;20066;-69
2022/04/26 16:38:06;;;;;;;5.50;2.90;;;;;;;16.40;44.12;101085.22;6002729;28;20046;-69
2022/04/26 16:41:04;;;;;;;4.70;2.70;;;;;;;16.36;44.72;101085.78;6005719;28;20030;-69
2022/04/26 16:43:59;;;;;;;5.30;3.30;;;;;;;16.32;46.33;101085.28;6011184;28;20023;-69
2022/04/26 16:46:54;;;;;;;5.60;3.17;;;;;;;16.39;46.16;101091.59;6001996;28;20089;-70
2022/04/26 16:49:50;;;;;;;4.27;2.70;;;;;;;16.12;47.28;101085.84;6005344;28;20046;-69
2022/04/26 16:52:46;;;;;;;8.10;3.40;;;;;;;15.92;46.93;101101.47;5998817;28;20041;-69
2022/04/26 16:55:41;;;;;;;6.10;3.00;;;;;;;15.87;46.73;101098.47;6002965;28;20030;-69
2022/04/26 16:58:36;;;;;;;5.17;2.80;;;;;;;15.64;46.91;101093.00;6005684;28;20046;-69
2022/04/26 17:01:32;;;;;;;8.70;2.87;;;;;;;15.39;48.47;101108.19;6004532;28;20071;-69
2022/04/26 17:04:27;;;;;;;6.57;3.00;;;;;;;15.12;48.97;101100.50;6004862;28;20042;-69
2022/04/26 17:07:25;;;;;;;8.07;3.20;;;;;;;15.14;49.56;101106.50;6007379;28;20039;-69
2022/04/26 17:10:20;;;;;;;8.23;3.10;;;;;;;15.02;49.20;101113.19;6004984;28;20035;-69
2022/04/26 17:13:15;;;;;;;5.90;3.30;;;;;;;14.79;49.77;101114.78;6005218;28;20034;-69
2022/04/26 17:16:11;;;;;;;5.23;2.73;;;;;;;14.76;50.04;101109.78;6005172;28;20270;-69
2022/04/26 17:19:06;;;;;;;6.40;2.97;;;;;;;14.76;50.12;101115.09;6004779;28;20278;-69
2022/04/26 17:22:02;;;;;;;6.10;3.10;;;;;;;14.55;49.74;101120.06;6004272;28;20282;-69
2022/04/26 17:25:15;;;;;;;5.33;3.13;;;;;;;14.53;50.57;101114.06;6005925;28;20043;-69
2022/04/26 17:28:10;;;;;;;5.97;3.10;;;;;;;14.41;51.14;101124.16;6010158;28;20273;-69
2022/04/26 17:31:06;;;;;;;6.60;3.50;;;;;;;14.34;52.11;101122.31;6003821;28;20061;-69
2022/04/26 17:34:01;;;;;;;5.75;2.90;;;;;;;14.24;52.88;101125.91;6005669;28;20034;-69
2022/04/26 17:36:56;;;;;;;7.40;3.47;;;;;;;14.27;53.96;101136.25;6005050;28;20031;-69
2022/04/26 17:39:52;;;;;;;8.30;3.40;;;;;;;14.12;54.54;101129.84;6004405;28;20423;-69
2022/04/26 17:42:47;;;;;;;6.63;2.85;;;;;;;14.09;54.76;101129.31;6004827;28;20043;-69
2022/04/26 17:45:46;;;;;;;6.90;2.73;;;;;;;14.05;56.27;101147.47;6004850;28;20089;-69
2022/04/26 17:48:41;;;;;;;7.43;2.78;;;;;;;13.88;56.10;101139.53;6004136;28;20033;-69
2022/04/26 17:51:36;;;;;;;5.93;3.20;;;;;;;13.78;55.76;101144.16;6000524;28;20039;-69
2022/04/26 17:57:46;;;;;;;5.93;3.20;;;;;;;13.77;55.95;101151.28;5997530;28;20121;-69
2022/04/26 18:00:42;;;;;;;6.00;3.10;;;;;;;13.67;56.19;101153.19;6003987;28;20505;-69